Beemerville, New Jersey
Current Conditions -  °F | °C
As of 1:53 PM on Monday 20 Oct 2014 (Local Time) from KFWN Reporting Station
Clear Clear  
Wind Chill: 58°   Ceiling: Unl
Heat Index: 58°   Visibility: 10mi
Dew Point: 35°   Wind: 9mph
Humidity: 42%   Direction: 220°SW
Pressure: 30"   Gusts: 18mph
Location:  41.2395°N, 74.6087°W
Report Text: KFWN 201753Z AUTO 22008G16KT 10SM CLR 14/02 A3000 RMK AO2 SLP160 T01440017 10144 20006 58025
Loading
Personal Weather Stations






























Interactive Weather Map
Tropical Storm Tracking
New forecast layout! Learn more

10-Day Weather Forecast

Advertisements
Track Severe Weather on mobile